createdAt,value
2022-11-23T03:31:50.972Z,18.77
2022-11-23T03:32:58.151Z,19.40
2022-11-23T03:34:00.362Z,27.00
2022-11-23T03:35:14.495Z,25.63
2022-11-23T03:36:18.894Z,19.48
2022-11-23T03:37:24.647Z,16.05
2022-11-23T03:38:38.504Z,21.77
2022-11-23T03:39:47.713Z,26.52
2022-11-23T03:40:52.391Z,27.17
2022-11-23T03:42:02.104Z,32.58
2022-11-23T03:43:06.937Z,24.25
2022-11-23T03:44:16.348Z,16.20
2022-11-23T03:45:23.886Z,18.45
2022-11-23T03:46:31.062Z,19.35
2022-11-23T03:47:43.407Z,13.40
2022-11-23T03:48:48.427Z,16.63
2022-11-23T03:49:56.179Z,14.10
2022-11-23T03:51:06.153Z,13.20
2022-11-23T03:52:14.634Z,10.82
2022-11-23T03:53:23.445Z,17.95
2022-11-23T03:54:32.652Z,18.02
2022-11-23T03:55:41.200Z,27.55
2022-11-23T03:56:46.479Z,16.35
2022-11-23T03:57:51.754Z,20.15
2022-11-23T03:59:00.708Z,17.48
2022-11-23T04:00:13.025Z,20.00
2022-11-23T04:01:21.519Z,19.90
2022-11-23T04:02:36.078Z,20.42
2022-11-23T04:03:47.347Z,20.20
2022-11-23T04:04:57.761Z,18.70
2022-11-23T04:06:09.071Z,23.58
2022-11-23T04:07:16.092Z,28.15
2022-11-23T04:08:18.454Z,22.50
2022-11-23T04:09:23.335Z,25.13
2022-11-23T04:10:28.383Z,21.65
2022-11-23T04:11:33.280Z,14.25
2022-11-23T04:12:39.226Z,19.48
2022-11-23T04:13:53.390Z,21.15
2022-11-23T04:15:06.354Z,22.00
2022-11-23T04:16:11.754Z,25.67
2022-11-23T04:17:26.507Z,22.63
2022-11-23T04:18:33.656Z,21.70
2022-11-23T04:19:43.003Z,19.65
2022-11-23T04:20:49.937Z,26.70
2022-11-23T04:21:55.255Z,19.55
2022-11-23T04:23:00.402Z,14.02
2022-11-23T04:24:02.741Z,20.70
2022-11-23T04:25:10.528Z,22.13
2022-11-23T04:26:19.469Z,18.15
2022-11-23T04:27:24.486Z,26.00
2022-11-23T04:28:29.109Z,18.65
2022-11-23T04:29:39.649Z,19.48
2022-11-23T04:30:53.175Z,17.75
2022-11-23T04:32:01.424Z,14.95
2022-11-23T04:33:11.741Z,20.60
2022-11-23T04:34:25.385Z,21.27
2022-11-23T04:35:36.389Z,25.45
2022-11-23T04:36:42.763Z,31.23
2022-11-23T04:37:48.018Z,26.92
2022-11-23T04:38:53.107Z,16.98
2022-11-23T04:40:05.689Z,17.50
2022-11-23T04:41:10.552Z,26.15
2022-11-23T04:42:14.301Z,29.33
2022-11-23T04:43:24.908Z,20.15
2022-11-23T04:44:34.340Z,20.10
2022-11-23T04:45:41.622Z,21.42
2022-11-23T04:46:45.844Z,21.38
2022-11-23T04:47:50.952Z,21.10
2022-11-23T04:49:03.614Z,13.88
2022-11-23T04:50:09.870Z,18.90
2022-11-23T04:51:19.340Z,20.08
2022-11-23T04:52:28.182Z,30.45
2022-11-23T04:53:33.543Z,16.00
2022-11-23T04:54:36.037Z,16.70
2022-11-23T04:55:46.461Z,18.88
2022-11-23T04:56:51.362Z,20.45
2022-11-23T04:57:58.409Z,20.50
2022-11-23T04:59:03.863Z,18.20
2022-11-23T05:00:16.274Z,11.43
2022-11-23T05:01:29.845Z,16.00
2022-11-23T05:02:37.071Z,19.48
2022-11-23T05:03:49.365Z,18.52
2022-11-23T05:04:54.267Z,34.55
2022-11-23T05:06:06.792Z,18.33
2022-11-23T05:07:16.210Z,16.58
2022-11-23T05:08:21.377Z,19.92
2022-11-23T05:09:25.937Z,28.83
2022-11-23T05:10:30.745Z,17.55
2022-11-23T05:11:33.066Z,21.35
2022-11-23T05:12:38.561Z,20.58
2022-11-23T05:13:55.223Z,21.85
2022-11-23T05:15:05.910Z,12.85
2022-11-23T05:16:10.927Z,22.33
2022-11-23T05:17:18.792Z,19.73
2022-11-23T05:18:29.716Z,18.55
2022-11-23T05:19:34.394Z,22.58
2022-11-23T05:20:39.452Z,17.75
2022-11-23T05:21:43.990Z,23.95
2022-11-23T05:22:53.214Z,21.05
2022-11-23T05:23:58.140Z,18.52
2022-11-23T05:25:03.725Z,16.30
2022-11-23T05:26:09.083Z,24.27
2022-11-23T05:27:13.305Z,17.83
2022-11-23T05:29:47.063Z,23.13
2022-11-23T05:30:53.325Z,12.07
2022-11-23T05:31:58.211Z,13.48
2022-11-23T05:33:07.007Z,23.20
2022-11-23T05:34:21.313Z,23.20
2022-11-23T05:35:26.427Z,20.60
2022-11-23T05:36:40.827Z,14.88
2022-11-23T05:37:48.440Z,17.08
2022-11-23T05:38:59.478Z,19.25
2022-11-23T05:40:01.998Z,13.43
2022-11-23T05:41:06.919Z,9.80
2022-11-23T05:42:12.619Z,17.77
2022-11-23T05:43:17.793Z,14.60
2022-11-23T05:44:19.919Z,13.88
2022-11-23T05:45:32.986Z,15.65
2022-11-23T05:46:40.628Z,19.63
2022-11-23T05:47:45.340Z,11.70
2022-11-23T05:49:00.917Z,13.48
2022-11-23T05:50:06.555Z,19.20
2022-11-23T05:51:16.485Z,15.40
2022-11-23T05:52:21.519Z,15.95
2022-11-23T05:53:29.376Z,26.00
2022-11-23T05:54:36.871Z,21.35
2022-11-23T05:55:41.466Z,9.60
2022-11-23T05:56:51.026Z,18.20
2022-11-23T05:57:55.811Z,31.67
2022-11-23T05:59:08.087Z,19.17
2022-11-23T06:00:34.752Z,20.77
2022-11-23T06:01:42.709Z,13.52
2022-11-23T06:02:47.702Z,18.83
2022-11-23T06:03:55.208Z,22.48
2022-11-23T06:05:00.837Z,14.70
2022-11-23T06:06:08.579Z,18.30
2022-11-23T06:07:21.635Z,18.77
2022-11-23T06:08:27.858Z,15.90
2022-11-23T06:09:45.994Z,8.75
2022-11-23T06:10:58.788Z,6.63
2022-11-23T06:12:12.062Z,13.93
2022-11-23T06:13:18.293Z,15.52
2022-11-23T06:14:23.111Z,18.52
2022-11-23T06:15:31.195Z,19.77
2022-11-23T06:16:36.264Z,20.58
2022-11-23T06:17:42.148Z,32.40
2022-11-23T06:18:44.400Z,13.82
2022-11-23T06:19:49.055Z,16.70
2022-11-23T06:20:51.298Z,15.75
2022-11-23T06:21:59.073Z,16.77
2022-11-23T06:23:01.528Z,13.70
2022-11-23T06:24:06.500Z,21.83
2022-11-23T06:25:11.399Z,13.32
2022-11-23T06:26:19.011Z,20.75
2022-11-23T06:27:23.778Z,16.60
2022-11-23T06:28:38.425Z,11.57
2022-11-23T06:29:43.234Z,16.35
2022-11-23T06:30:47.296Z,13.50
2022-11-23T06:31:51.990Z,11.25
2022-11-23T06:32:54.090Z,18.27
2022-11-23T06:34:01.859Z,15.57
2022-11-23T06:35:04.475Z,21.80
2022-11-23T06:36:12.385Z,15.65
2022-11-23T06:37:17.182Z,18.08
2022-11-23T06:38:28.239Z,10.05
2022-11-23T06:39:32.826Z,16.13
2022-11-23T06:40:40.369Z,13.50
2022-11-23T06:41:42.482Z,10.68
2022-11-23T06:42:47.764Z,15.55
2022-11-23T06:43:52.041Z,14.13
2022-11-23T06:44:56.771Z,21.70
2022-11-23T06:46:02.048Z,18.40
2022-11-23T06:47:07.030Z,23.73
2022-11-23T06:48:11.946Z,15.55
2022-11-23T06:49:17.251Z,18.85
2022-11-23T06:50:19.492Z,13.52
2022-11-23T06:51:24.174Z,8.43
2022-11-23T06:52:27.908Z,14.55
2022-11-23T06:53:34.505Z,11.18
2022-11-23T06:54:36.613Z,12.68
2022-11-23T06:55:47.390Z,14.93
2022-11-23T06:56:49.420Z,7.82
2022-11-23T06:57:56.843Z,16.52
2022-11-23T06:59:01.607Z,8.10
2022-11-23T07:00:08.087Z,13.30
2022-11-23T07:01:13.297Z,14.98
2022-11-23T07:02:15.836Z,13.48
2022-11-23T07:03:30.809Z,16.30
2022-11-23T07:04:33.144Z,14.63
2022-11-23T07:05:37.828Z,8.05
2022-11-23T07:06:47.345Z,15.73
2022-11-23T07:07:51.323Z,20.20
2022-11-23T07:08:57.815Z,19.85
2022-11-23T07:10:06.829Z,22.98
2022-11-23T07:11:17.637Z,14.10
2022-11-23T07:12:22.352Z,25.00
2022-11-23T07:13:27.178Z,16.42
2022-11-23T07:14:30.922Z,14.38
2022-11-23T07:15:36.122Z,29.02
2022-11-23T07:16:38.293Z,17.23
2022-11-23T07:17:44.549Z,25.48
2022-11-23T07:18:46.644Z,12.27
2022-11-23T07:19:51.486Z,20.02
2022-11-23T07:20:53.963Z,18.95
2022-11-23T07:21:58.621Z,20.73
2022-11-23T07:23:01.697Z,14.13
2022-11-23T07:24:06.822Z,17.05
2022-11-23T07:25:14.517Z,18.98
2022-11-23T07:26:21.982Z,20.45
2022-11-23T07:27:25.900Z,20.80
2022-11-23T07:28:31.483Z,17.25
2022-11-23T07:29:33.873Z,20.48
2022-11-23T07:30:52.908Z,28.40
2022-11-23T07:31:55.041Z,13.57
2022-11-23T07:33:02.727Z,14.45
2022-11-23T07:34:05.304Z,21.13
2022-11-23T07:35:11.483Z,16.65
2022-11-23T07:36:26.790Z,16.55
2022-11-23T07:37:28.984Z,20.45
2022-11-23T07:38:35.213Z,22.23
2022-11-23T07:39:56.177Z,15.85
2022-11-23T07:42:31.494Z,19.33
2022-11-23T07:43:33.836Z,22.92
2022-11-23T07:44:36.000Z,10.23
2022-11-23T07:45:43.730Z,11.32
2022-11-23T07:46:48.402Z,21.20
2022-11-23T07:48:00.829Z,17.95
2022-11-23T07:49:05.734Z,20.70
2022-11-23T07:50:09.829Z,18.42
2022-11-23T07:51:16.660Z,20.73
2022-11-23T07:52:23.703Z,26.23
2022-11-23T07:53:28.427Z,15.13
2022-11-23T07:54:33.276Z,19.20
2022-11-23T07:55:38.153Z,26.23
2022-11-23T07:56:42.895Z,21.45
2022-11-23T07:57:50.291Z,21.67
2022-11-23T07:58:56.968Z,14.95
2022-11-23T07:59:59.225Z,16.52
2022-11-23T08:01:04.235Z,18.83
2022-11-23T08:02:13.094Z,33.00
2022-11-23T08:03:27.890Z,15.43
2022-11-23T08:04:34.332Z,17.23
2022-11-23T08:05:40.905Z,21.95
2022-11-23T08:06:47.066Z,21.67
2022-11-23T08:07:51.922Z,21.40
2022-11-23T08:09:01.731Z,36.15
2022-11-23T08:10:09.201Z,28.95
2022-11-23T08:11:18.537Z,23.95
2022-11-23T08:12:24.179Z,30.42
2022-11-23T08:13:34.870Z,30.17
2022-11-23T08:14:46.714Z,49.38
2022-11-23T08:15:55.235Z,30.73
2022-11-23T08:16:58.208Z,37.80
2022-11-23T08:18:08.585Z,27.05
2022-11-23T08:19:17.370Z,26.15
2022-11-23T08:20:23.330Z,13.35
2022-11-23T08:21:45.652Z,29.15
2022-11-23T08:22:52.942Z,30.20
2022-11-23T08:23:57.958Z,20.88
2022-11-23T08:25:02.753Z,25.60
2022-11-23T08:26:14.735Z,18.67
2022-11-23T08:27:21.096Z,38.00
2022-11-23T08:28:27.983Z,17.85
2022-11-23T08:29:35.569Z,25.45
2022-11-23T08:30:44.796Z,7.93
2022-11-23T08:31:51.772Z,25.73
2022-11-23T08:33:01.080Z,15.15
2022-11-23T08:34:08.176Z,16.17
2022-11-23T08:35:14.443Z,27.90
2022-11-23T08:36:18.972Z,19.83
2022-11-23T08:37:30.765Z,34.15
2022-11-23T08:38:44.641Z,21.35
2022-11-23T08:39:51.628Z,214.02
2022-11-23T08:40:58.709Z,11.30
2022-11-23T08:42:03.502Z,19.02
2022-11-23T08:43:10.183Z,16.25
2022-11-23T08:44:18.172Z,13.88
2022-11-23T08:45:27.042Z,24.02
2022-11-23T08:46:32.257Z,24.00
2022-11-23T08:47:37.295Z,18.25
2022-11-23T08:48:43.816Z,40.22
2022-11-23T08:49:52.241Z,25.58
2022-11-23T08:50:57.859Z,24.58
2022-11-23T08:52:02.992Z,30.55
2022-11-23T08:53:14.361Z,18.13
2022-11-23T08:54:23.455Z,30.77
2022-11-23T08:55:29.389Z,16.20
2022-11-23T08:56:35.621Z,24.38
2022-11-23T08:57:41.889Z,36.78
2022-11-23T08:58:53.517Z,50.65
2022-11-23T09:01:11.577Z,26.70
2022-11-23T09:02:20.312Z,29.00
2022-11-23T09:03:29.464Z,47.75
2022-11-23T09:04:34.544Z,44.17
2022-11-23T09:05:44.628Z,43.33
2022-11-23T09:06:52.815Z,66.15
2022-11-23T09:08:04.148Z,30.75
2022-11-23T09:09:11.993Z,29.60
2022-11-23T09:10:21.080Z,20.00
2022-11-23T09:11:26.433Z,35.72
2022-11-23T09:12:32.145Z,23.70
2022-11-23T09:13:41.626Z,29.23
2022-11-23T09:14:57.582Z,8.80
2022-11-23T09:16:08.210Z,10.55
2022-11-23T09:17:27.482Z,25.63
2022-11-23T09:18:39.698Z,17.23
2022-11-23T09:19:49.025Z,18.02
2022-11-23T09:20:57.490Z,21.05
2022-11-23T09:22:02.295Z,35.05
2022-11-23T09:23:16.341Z,30.88
2022-11-23T09:24:21.354Z,22.17
2022-11-23T09:25:29.552Z,17.08
2022-11-23T09:26:45.123Z,17.38
2022-11-23T09:27:49.943Z,47.70
2022-11-23T09:28:54.942Z,31.90
2022-11-23T09:29:57.068Z,23.45
2022-11-23T09:31:05.290Z,58.28
2022-11-23T09:32:13.224Z,28.40
2022-11-23T09:33:21.035Z,32.15
2022-11-23T09:34:30.086Z,27.35
2022-11-23T09:35:38.152Z,29.33
2022-11-23T09:36:45.543Z,18.80
2022-11-23T09:37:50.596Z,14.52
2022-11-23T09:38:57.043Z,13.98
2022-11-23T09:40:08.290Z,30.27
2022-11-23T09:41:37.125Z,11.27
2022-11-23T09:42:56.751Z,9.75
2022-11-23T09:44:07.657Z,13.10
2022-11-23T09:45:27.371Z,9.10
2022-11-23T09:46:46.268Z,24.52
2022-11-23T09:48:08.516Z,28.85
2022-11-23T09:49:18.805Z,8.98
2022-11-23T09:50:27.800Z,38.90
2022-11-23T09:51:35.307Z,13.90
2022-11-23T09:52:41.045Z,11.27
2022-11-23T09:53:53.053Z,17.13
2022-11-23T09:55:03.512Z,21.13
2022-11-23T09:56:17.477Z,10.82
2022-11-23T09:57:26.959Z,12.77
2022-11-23T09:58:38.278Z,6.93
2022-11-23T09:59:50.395Z,43.00
2022-11-23T10:01:03.967Z,18.23
2022-11-23T10:02:08.807Z,21.50
2022-11-23T10:03:20.134Z,27.55
2022-11-23T10:04:25.699Z,48.83
2022-11-23T10:05:36.007Z,23.27
2022-11-23T10:06:47.257Z,24.30
2022-11-23T10:08:05.306Z,152.85
2022-11-23T10:09:28.021Z,47.70
2022-11-23T10:10:44.708Z,266.70
2022-11-23T10:12:12.164Z,202.38
2022-11-23T10:13:38.154Z,60.72
2022-11-23T10:14:56.408Z,26.77
2022-11-23T10:16:27.822Z,16.65
2022-11-23T10:17:54.413Z,23.13
2022-11-23T10:19:14.630Z,16.88
2022-11-23T10:20:33.852Z,10.18
2022-11-23T10:21:47.716Z,17.58
2022-11-23T10:23:00.547Z,22.10
2022-11-23T10:24:19.373Z,12.50
2022-11-23T10:25:26.127Z,19.63
2022-11-23T10:26:37.297Z,976.55
2022-11-23T10:27:43.938Z,631.72
2022-11-23T10:28:53.806Z,105.35
2022-11-23T10:30:03.633Z,16.70
2022-11-23T10:31:17.591Z,85.32
2022-11-23T10:32:35.798Z,62.05
2022-11-23T10:33:52.582Z,18.38
2022-11-23T10:35:08.751Z,41.35
2022-11-23T10:36:16.437Z,23.58
2022-11-23T10:37:20.366Z,19.23
2022-11-23T10:38:30.539Z,16.33
2022-11-23T10:39:35.705Z,25.10
2022-11-23T10:40:47.358Z,8.77
2022-11-23T10:43:12.097Z,24.38
2022-11-23T10:44:33.764Z,24.45
2022-11-23T10:45:39.289Z,11.45
2022-11-23T10:46:50.382Z,21.35
2022-11-23T10:48:03.989Z,19.63
2022-11-23T10:49:30.839Z,15.70
2022-11-23T10:50:44.069Z,14.35
2022-11-23T10:52:07.365Z,29.77
2022-11-23T10:53:35.899Z,47.88
2022-11-23T10:54:57.611Z,14.73
2022-11-23T10:56:30.654Z,18.52
2022-11-23T10:57:41.499Z,27.20
2022-11-23T10:58:47.397Z,17.67
2022-11-23T11:00:13.555Z,28.70
2022-11-23T11:01:26.489Z,19.20
2022-11-23T11:03:01.142Z,18.10
2022-11-23T11:04:39.851Z,21.95
2022-11-23T11:06:12.348Z,16.05
2022-11-23T11:07:38.860Z,24.15
2022-11-23T11:08:53.976Z,19.85
2022-11-23T11:09:57.850Z,3.58
2022-11-23T11:11:05.023Z,13.07
2022-11-23T11:12:19.346Z,4.80
2022-11-23T11:13:30.069Z,16.02
2022-11-23T11:14:43.081Z,7.03
2022-11-23T11:15:55.090Z,6.38
2022-11-23T11:17:01.049Z,14.20
2022-11-23T11:18:03.149Z,14.07
2022-11-23T11:19:25.685Z,11.75
2022-11-23T11:20:33.662Z,13.07
2022-11-23T11:21:44.679Z,25.77
2022-11-23T11:22:49.735Z,23.60
2022-11-23T11:23:56.801Z,14.48
2022-11-23T11:24:58.954Z,17.80
2022-11-23T11:26:17.208Z,16.20
2022-11-23T11:27:25.876Z,14.07
2022-11-23T11:28:38.181Z,12.65
2022-11-23T11:29:50.488Z,15.93
2022-11-23T11:31:07.318Z,21.25
2022-11-23T11:32:23.745Z,10.68
2022-11-23T11:33:36.329Z,20.73
2022-11-23T11:34:50.677Z,10.82
2022-11-23T11:35:58.837Z,3.95
2022-11-23T11:37:14.925Z,7.20
2022-11-23T11:38:25.671Z,10.02
2022-11-23T11:39:35.385Z,15.63
2022-11-23T11:40:44.503Z,10.93
2022-11-23T11:41:52.783Z,13.80
2022-11-23T11:43:02.546Z,11.27
2022-11-23T11:44:12.553Z,6.13
2022-11-23T11:45:22.166Z,6.57
2022-11-23T11:46:32.457Z,17.70
2022-11-23T11:47:41.625Z,8.90
2022-11-23T11:48:49.574Z,17.00
2022-11-23T11:49:59.377Z,3.53
2022-11-23T11:51:06.563Z,6.85
2022-11-23T11:52:19.304Z,6.30
2022-11-23T11:53:25.408Z,36.70
2022-11-23T11:54:37.383Z,25.25
2022-11-23T11:55:53.244Z,20.23
2022-11-23T11:57:03.514Z,17.10
2022-11-23T11:58:13.838Z,22.35
2022-11-23T11:59:25.725Z,16.80
2022-11-23T12:00:33.024Z,23.77
2022-11-23T12:01:38.617Z,25.23
2022-11-23T12:02:52.955Z,29.77
2022-11-23T12:04:03.130Z,26.13
2022-11-23T12:05:19.200Z,21.77
2022-11-23T12:06:27.137Z,3.05
2022-11-23T12:07:38.035Z,5.32
2022-11-23T12:08:52.837Z,5.00
2022-11-23T12:10:03.751Z,5.35
2022-11-23T12:11:08.595Z,15.45
2022-11-23T12:12:19.415Z,11.68
2022-11-23T12:13:26.635Z,12.43
2022-11-23T12:14:31.627Z,12.63
2022-11-23T12:15:49.561Z,14.95
2022-11-23T12:17:31.527Z,11.68
2022-11-23T12:18:58.480Z,6.68
2022-11-23T12:20:08.773Z,3.10
2022-11-23T12:21:28.642Z,5.97
2022-11-23T12:22:50.857Z,10.45
2022-11-23T12:24:05.307Z,18.83
2022-11-23T12:25:26.203Z,10.85
2022-11-23T12:26:39.071Z,3.72
2022-11-23T12:27:52.628Z,14.68
2022-11-23T12:29:12.118Z,11.38
2022-11-23T12:30:25.916Z,10.30
2022-11-23T12:31:43.312Z,10.00
2022-11-23T12:33:07.205Z,11.80
2022-11-23T12:34:26.749Z,4.13
2022-11-23T12:35:49.055Z,21.30
2022-11-23T12:37:15.880Z,7.07
2022-11-23T12:38:40.686Z,8.20
2022-11-23T12:40:17.009Z,13.25
2022-11-23T12:41:27.055Z,3.85
2022-11-23T12:42:41.754Z,12.00
2022-11-23T12:44:00.234Z,8.82
2022-11-23T12:45:31.622Z,14.07
2022-11-23T12:46:43.503Z,24.55
2022-11-23T12:47:56.468Z,12.20
2022-11-23T12:49:18.463Z,13.30
2022-11-23T12:51:39.344Z,20.65
2022-11-23T12:53:00.913Z,18.75
2022-11-23T12:54:25.500Z,7.53
2022-11-23T12:55:38.972Z,24.00
2022-11-23T12:57:07.368Z,26.85
2022-11-23T12:58:20.722Z,25.65
2022-11-23T12:59:26.923Z,19.52
2022-11-23T13:00:37.378Z,19.23
2022-11-23T13:01:43.094Z,9.65
2022-11-23T13:03:23.228Z,10.65
2022-11-23T13:05:07.146Z,10.52
2022-11-23T13:06:50.002Z,8.30
2022-11-23T13:08:27.867Z,20.02
2022-11-23T13:09:46.973Z,8.57
2022-11-23T13:11:04.499Z,3.78
2022-11-23T13:12:38.875Z,7.70
2022-11-23T13:13:59.359Z,15.30
2022-11-23T13:15:22.242Z,6.03
2022-11-23T13:17:07.257Z,8.88
2022-11-23T13:18:21.587Z,4.00
2022-11-23T13:19:50.812Z,8.95
2022-11-23T13:21:12.279Z,12.85
2022-11-23T13:22:21.201Z,13.55
2022-11-23T13:23:28.160Z,14.65
2022-11-23T13:24:32.925Z,7.93
2022-11-23T13:25:40.532Z,4.32
2022-11-23T13:26:42.634Z,10.20
2022-11-23T13:27:58.517Z,19.80
2022-11-23T13:29:23.519Z,20.77
2022-11-23T13:30:59.238Z,8.23
2022-11-23T13:32:48.380Z,8.43
2022-11-23T13:33:55.336Z,3.67
2022-11-23T13:34:57.572Z,6.63
2022-11-23T13:36:09.494Z,7.18
2022-11-23T13:37:15.999Z,7.47
2022-11-23T13:38:39.915Z,8.93
2022-11-23T13:40:04.218Z,26.20
2022-11-23T13:41:38.760Z,3.88
2022-11-23T13:42:46.190Z,8.68
2022-11-23T13:43:48.283Z,19.10
2022-11-23T13:45:30.516Z,13.60
2022-11-23T13:46:37.879Z,2.67
2022-11-23T13:47:43.995Z,12.77
2022-11-23T13:48:58.172Z,4.65
2022-11-23T13:50:12.672Z,6.25
2022-11-23T13:51:26.881Z,16.73
2022-11-23T13:52:37.079Z,11.40
2022-11-23T13:53:41.248Z,5.07
2022-11-23T13:54:57.825Z,3.95
2022-11-23T13:56:27.363Z,3.47
2022-11-23T13:57:30.155Z,18.70
2022-11-23T13:58:53.758Z,14.73
2022-11-23T14:00:36.828Z,10.32
2022-11-23T14:02:25.595Z,18.63
2022-11-23T14:03:50.098Z,11.82
2022-11-23T14:04:54.860Z,65.32
2022-11-23T14:06:01.450Z,504.15
2022-11-23T14:07:09.027Z,346.73
2022-11-23T14:08:13.008Z,492.38
2022-11-23T14:09:25.042Z,154.07
2022-11-23T14:10:34.473Z,793.47
2022-11-23T14:11:48.599Z,947.13
2022-11-23T14:12:59.633Z,532.60
2022-11-23T14:14:16.647Z,627.25
2022-11-23T14:15:24.304Z,916.90
2022-11-23T14:16:55.929Z,908.75
2022-11-23T14:18:36.647Z,909.83
2022-11-23T14:19:55.985Z,416.13
2022-11-23T14:21:17.064Z,43.50
2022-11-23T14:22:33.494Z,26.27
2022-11-23T14:24:05.558Z,10.38
2022-11-23T14:25:30.612Z,26.83
2022-11-23T14:26:48.853Z,16.50
2022-11-23T14:28:06.438Z,46.92
2022-11-23T14:29:35.816Z,13.32
2022-11-23T14:30:52.660Z,43.35
2022-11-23T14:32:19.665Z,54.40
2022-11-23T14:33:32.614Z,77.30
2022-11-23T14:34:52.057Z,83.10
2022-11-23T14:36:06.916Z,68.25
2022-11-23T14:37:21.874Z,34.72
2022-11-23T14:38:59.647Z,45.53
2022-11-23T14:40:19.238Z,49.85
2022-11-23T14:41:23.849Z,33.72
2022-11-23T14:42:31.131Z,21.70
2022-11-23T14:43:37.624Z,57.83
2022-11-23T14:44:44.867Z,51.65
2022-11-23T14:45:51.140Z,45.40
2022-11-23T14:47:06.671Z,69.55
2022-11-23T14:48:31.635Z,61.25
2022-11-23T14:49:34.957Z,60.95
2022-11-23T14:50:39.747Z,69.80
2022-11-23T14:51:46.945Z,55.22
2022-11-23T14:52:54.261Z,34.58
2022-11-23T14:54:02.475Z,31.35
2022-11-23T14:55:09.130Z,36.80
2022-11-23T14:56:30.101Z,24.65
2022-11-23T14:57:42.736Z,57.05
2022-11-23T14:58:47.262Z,53.75
2022-11-23T15:00:00.567Z,45.33
2022-11-23T15:01:03.557Z,32.03
2022-11-23T15:02:17.854Z,54.88
2022-11-23T15:05:00.451Z,25.35
2022-11-23T15:06:12.945Z,87.95
2022-11-23T15:07:21.977Z,58.88
2022-11-23T15:08:32.180Z,22.52
2022-11-23T15:09:52.257Z,32.92
2022-11-23T15:11:01.857Z,26.17
2022-11-23T15:12:11.614Z,20.10
2022-11-23T15:13:24.580Z,36.80
2022-11-23T15:14:27.325Z,53.90
2022-11-23T15:15:38.191Z,58.35
2022-11-23T15:16:43.743Z,65.25
2022-11-23T15:17:53.062Z,73.35
2022-11-23T15:18:58.158Z,109.32
2022-11-23T15:20:01.383Z,103.68
2022-11-23T15:21:09.441Z,84.25
2022-11-23T15:22:16.626Z,60.53
2022-11-23T15:23:24.253Z,68.88
2022-11-23T15:24:31.599Z,65.72
2022-11-23T15:25:36.636Z,80.18
2022-11-23T15:26:49.115Z,89.43
2022-11-23T15:27:54.401Z,59.95
2022-11-23T15:28:56.726Z,59.88
2022-11-23T15:30:02.743Z,58.10
2022-11-23T15:31:30.684Z,38.00
2022-11-23T15:32:36.788Z,36.63
2022-11-23T15:33:42.177Z,55.40
2022-11-23T15:34:44.413Z,56.97
2022-11-23T15:35:50.062Z,32.83
2022-11-23T15:36:52.860Z,53.40
2022-11-23T15:37:58.454Z,47.97
2022-11-23T15:39:08.465Z,36.45
2022-11-23T15:40:13.961Z,42.75
2022-11-23T15:41:19.748Z,48.38
2022-11-23T15:42:24.727Z,46.35
2022-11-23T15:43:29.488Z,50.63
2022-11-23T15:44:32.909Z,59.40
2022-11-23T15:45:59.883Z,29.63
2022-11-23T15:47:09.839Z,34.92
2022-11-23T15:48:14.790Z,27.20
2022-11-23T15:49:20.672Z,28.25
2022-11-23T15:50:22.790Z,25.80
2022-11-23T15:51:31.090Z,41.85
2022-11-23T15:52:36.705Z,47.53
2022-11-23T15:53:50.617Z,46.63
2022-11-23T15:54:55.348Z,44.20
2022-11-23T15:56:01.074Z,27.88
2022-11-23T15:57:09.637Z,11.38
2022-11-23T15:58:17.140Z,15.75
2022-11-23T15:59:33.467Z,8.45
2022-11-23T16:00:37.240Z,19.52
2022-11-23T16:01:42.236Z,10.40
2022-11-23T16:02:49.952Z,15.30
2022-11-23T16:03:55.568Z,15.05
2022-11-23T16:05:13.976Z,18.95
2022-11-23T16:06:24.879Z,14.80
2022-11-23T16:07:29.637Z,12.90
2022-11-23T16:08:37.060Z,9.02
2022-11-23T16:09:51.224Z,13.52
2022-11-23T16:10:58.268Z,15.57
2022-11-23T16:12:00.364Z,23.75
2022-11-23T16:13:08.946Z,9.18
2022-11-23T16:14:21.676Z,18.10
2022-11-23T16:15:38.022Z,13.73
2022-11-23T16:16:46.146Z,18.42
2022-11-23T16:17:53.651Z,19.58
2022-11-23T16:18:58.991Z,6.68
2022-11-23T16:20:06.609Z,13.85
2022-11-23T16:21:17.129Z,23.05
2022-11-23T16:22:32.836Z,3.72
2022-11-23T16:23:43.334Z,17.52
2022-11-23T16:24:52.889Z,20.90
2022-11-23T16:26:01.433Z,18.98
2022-11-23T16:27:15.653Z,17.50
2022-11-23T16:28:27.124Z,9.75
2022-11-23T16:29:37.870Z,12.13
2022-11-23T16:30:46.440Z,5.17
2022-11-23T16:31:54.344Z,6.10
2022-11-23T16:33:01.608Z,17.27
2022-11-23T16:34:03.802Z,12.10
2022-11-23T16:35:19.680Z,6.85
2022-11-23T16:36:22.406Z,8.30
2022-11-23T16:37:29.164Z,7.88
2022-11-23T16:38:31.429Z,8.35
2022-11-23T16:39:36.186Z,12.13
2022-11-23T16:40:38.458Z,13.95
2022-11-23T16:41:43.693Z,11.45
2022-11-23T16:42:48.620Z,9.85
2022-11-23T16:43:53.031Z,12.93
2022-11-23T16:44:57.690Z,18.15
2022-11-23T16:46:02.115Z,18.15
2022-11-23T16:47:30.147Z,16.80
2022-11-23T16:48:42.282Z,10.48
2022-11-23T16:49:47.008Z,16.42
2022-11-23T16:50:49.047Z,12.55
2022-11-23T16:51:57.405Z,12.50
2022-11-23T16:53:05.171Z,12.20
2022-11-23T16:54:13.411Z,10.23
2022-11-23T16:55:19.455Z,10.93
2022-11-23T16:56:24.045Z,7.95
2022-11-23T16:57:33.912Z,10.43
2022-11-23T16:58:38.889Z,13.10
2022-11-23T16:59:43.739Z,16.48
2022-11-23T17:00:49.325Z,24.48
2022-11-23T17:01:56.893Z,17.08
2022-11-23T17:03:01.896Z,20.08
2022-11-23T17:04:06.712Z,14.77
2022-11-23T17:05:17.307Z,12.07
2022-11-23T17:06:23.131Z,22.92
2022-11-23T17:07:28.184Z,12.38
2022-11-23T17:08:30.320Z,13.45
2022-11-23T17:09:35.324Z,12.20
2022-11-23T17:10:41.201Z,11.15
2022-11-23T17:11:50.407Z,15.85
2022-11-23T17:12:57.627Z,7.57
2022-11-23T17:14:00.114Z,9.70
2022-11-23T17:15:04.748Z,15.07
2022-11-23T17:16:09.793Z,16.17
2022-11-23T17:17:17.053Z,10.50
2022-11-23T17:18:22.383Z,14.75
2022-11-23T17:19:27.201Z,29.35
2022-11-23T17:20:31.992Z,10.48
2022-11-23T17:21:37.056Z,9.77
2022-11-23T17:22:42.095Z,9.95
2022-11-23T17:23:44.590Z,8.75
2022-11-23T17:24:50.113Z,12.07
2022-11-23T17:25:55.040Z,6.95
2022-11-23T17:27:00.044Z,17.73
2022-11-23T17:28:03.390Z,7.72
2022-11-23T17:29:10.109Z,8.38
2022-11-23T17:30:18.022Z,16.55
2022-11-23T17:31:20.209Z,25.52
2022-11-23T17:32:24.882Z,9.57
2022-11-23T17:33:27.342Z,12.93
2022-11-23T17:34:34.663Z,11.30
2022-11-23T17:35:38.347Z,20.42
2022-11-23T17:36:44.402Z,13.63
2022-11-23T17:37:50.276Z,17.65
2022-11-23T17:38:52.813Z,8.32
2022-11-23T17:39:57.508Z,11.93
2022-11-23T17:40:59.777Z,5.22
2022-11-23T17:42:05.175Z,17.15
2022-11-23T17:43:07.708Z,7.95
2022-11-23T17:44:12.647Z,13.55
2022-11-23T17:45:18.020Z,26.27
2022-11-23T17:46:23.962Z,10.52
2022-11-23T17:47:31.361Z,14.52
2022-11-23T17:48:34.145Z,10.32
2022-11-23T17:49:41.436Z,20.85
2022-11-23T17:50:47.619Z,23.10
2022-11-23T17:51:52.307Z,11.65
2022-11-23T17:52:54.487Z,21.20
2022-11-23T17:53:59.148Z,8.50
2022-11-23T17:55:01.360Z,4.60
2022-11-23T17:56:06.396Z,6.90
2022-11-23T17:57:16.057Z,8.57
2022-11-23T17:58:18.145Z,5.60
2022-11-23T17:59:22.843Z,5.20
2022-11-23T18:00:27.568Z,6.60
2022-11-23T18:01:32.831Z,4.28
2022-11-23T18:02:35.072Z,6.63
2022-11-23T18:03:39.926Z,5.80
2022-11-23T18:04:47.554Z,15.85
2022-11-23T18:05:49.871Z,5.43
2022-11-23T18:06:54.659Z,10.18
2022-11-23T18:07:59.628Z,13.23
2022-11-23T18:09:01.932Z,52.40
2022-11-23T18:10:07.497Z,24.55
2022-11-23T18:11:10.033Z,21.33
2022-11-23T18:12:14.767Z,8.90
2022-11-23T18:13:17.003Z,8.10
2022-11-23T18:14:22.355Z,14.93
2022-11-23T18:15:24.407Z,8.38
2022-11-23T18:16:29.263Z,4.63
2022-11-23T18:17:31.602Z,14.10
2022-11-23T18:18:36.651Z,5.80
2022-11-23T18:19:38.885Z,9.50
2022-11-23T18:20:46.134Z,13.43
2022-11-23T18:21:48.724Z,10.60
2022-11-23T18:22:53.448Z,15.65
2022-11-23T18:24:04.148Z,12.90
2022-11-23T18:25:07.602Z,15.48
2022-11-23T18:26:22.085Z,16.27
2022-11-23T18:27:24.345Z,15.88
2022-11-23T18:28:29.252Z,8.00
2022-11-23T18:29:35.355Z,5.40
2022-11-23T18:30:38.260Z,13.23
2022-11-23T18:31:43.090Z,7.93
2022-11-23T18:32:45.399Z,8.77
2022-11-23T18:33:50.326Z,10.15
2022-11-23T18:34:55.199Z,4.03
2022-11-23T18:36:05.058Z,9.25
2022-11-23T18:37:11.003Z,3.58
2022-11-23T18:38:15.768Z,5.22
2022-11-23T18:39:17.940Z,8.88
2022-11-23T18:40:22.658Z,3.58
2022-11-23T18:41:27.559Z,11.20
2022-11-23T18:42:29.741Z,5.18
2022-11-23T18:43:35.250Z,11.07